sensor_id;sensor_type;location;lat;lon;timestamp;pressure;altitude;pressure_sealevel;temperature;humidity
8320;BME280;4197;42.130;24.746;2023-02-11T00:01:27;101423.00;;;-5.47;79.51
8320;BME280;4197;42.130;24.746;2023-02-11T00:03:56;101437.84;;;-5.53;80.16
8320;BME280;4197;42.130;24.746;2023-02-11T00:06:26;101437.28;;;-5.35;79.76
8320;BME280;4197;42.130;24.746;2023-02-11T00:08:55;101432.16;;;-5.50;79.63
8320;BME280;4197;42.130;24.746;2023-02-11T00:11:24;101433.97;;;-5.57;79.48
8320;BME280;4197;42.130;24.746;2023-02-11T00:13:56;101441.47;;;-5.61;79.65
8320;BME280;4197;42.130;24.746;2023-02-11T00:16:25;101443.88;;;-5.72;80.09
8320;BME280;4197;42.130;24.746;2023-02-11T00:18:54;101445.94;;;-5.61;80.71
8320;BME280;4197;42.130;24.746;2023-02-11T00:21:24;101435.41;;;-5.48;79.80
8320;BME280;4197;42.130;24.746;2023-02-11T00:23:53;101446.00;;;-5.48;80.33
8320;BME280;4197;42.130;24.746;2023-02-11T00:26:24;101437.03;;;-5.47;79.77
8320;BME280;4197;42.130;24.746;2023-02-11T00:28:53;101431.78;;;-5.40;78.90
8320;BME280;4197;42.130;24.746;2023-02-11T00:31:24;101438.47;;;-5.44;78.97
8320;BME280;4197;42.130;24.746;2023-02-11T00:33:54;101434.97;;;-5.58;79.34
8320;BME280;4197;42.130;24.746;2023-02-11T00:36:23;101438.16;;;-5.76;80.70
8320;BME280;4197;42.130;24.746;2023-02-11T00:38:53;101434.34;;;-5.67;80.89
8320;BME280;4197;42.130;24.746;2023-02-11T00:41:22;101432.53;;;-5.59;80.76
8320;BME280;4197;42.130;24.746;2023-02-11T00:43:50;101434.56;;;-5.55;80.96
8320;BME280;4197;42.130;24.746;2023-02-11T00:46:19;101438.63;;;-5.59;81.00
8320;BME280;4197;42.130;24.746;2023-02-11T00:48:49;101432.59;;;-5.40;80.61
8320;BME280;4197;42.130;24.746;2023-02-11T00:51:20;101425.25;;;-5.51;79.90
8320;BME280;4197;42.130;24.746;2023-02-11T00:53:48;101433.13;;;-5.57;80.21
8320;BME280;4197;42.130;24.746;2023-02-11T00:56:17;101439.44;;;-5.58;80.24
8320;BME280;4197;42.130;24.746;2023-02-11T00:58:45;101440.25;;;-5.58;80.74
8320;BME280;4197;42.130;24.746;2023-02-11T01:01:13;101427.44;;;-5.61;80.35
8320;BME280;4197;42.130;24.746;2023-02-11T01:03:42;101429.28;;;-5.62;79.70
8320;BME280;4197;42.130;24.746;2023-02-11T01:06:11;101422.75;;;-5.66;80.19
8320;BME280;4197;42.130;24.746;2023-02-11T01:08:39;101420.94;;;-5.58;80.58
8320;BME280;4197;42.130;24.746;2023-02-11T01:11:12;101422.78;;;-5.59;80.65
8320;BME280;4197;42.130;24.746;2023-02-11T01:13:41;101422.56;;;-5.57;80.59
8320;BME280;4197;42.130;24.746;2023-02-11T01:16:13;101418.31;;;-5.58;80.65
8320;BME280;4197;42.130;24.746;2023-02-11T01:18:42;101412.63;;;-5.55;80.60
8320;BME280;4197;42.130;24.746;2023-02-11T01:21:11;101413.81;;;-5.58;80.26
8320;BME280;4197;42.130;24.746;2023-02-11T01:23:40;101413.03;;;-5.52;80.92
8320;BME280;4197;42.130;24.746;2023-02-11T01:26:09;101406.88;;;-5.66;80.27
8320;BME280;4197;42.130;24.746;2023-02-11T01:28:37;101407.72;;;-5.65;81.35
8320;BME280;4197;42.130;24.746;2023-02-11T01:31:05;101403.88;;;-5.56;80.59
8320;BME280;4197;42.130;24.746;2023-02-11T01:33:34;101401.06;;;-5.48;80.37
8320;BME280;4197;42.130;24.746;2023-02-11T01:36:04;101401.06;;;-5.48;80.28
8320;BME280;4197;42.130;24.746;2023-02-11T01:41:04;101396.13;;;-5.64;80.11
8320;BME280;4197;42.130;24.746;2023-02-11T01:43:34;101390.16;;;-5.79;80.82
8320;BME280;4197;42.130;24.746;2023-02-11T01:46:28;101384.47;;;-5.90;81.91
8320;BME280;4197;42.130;24.746;2023-02-11T01:49:02;101386.09;;;-5.95;81.87
8320;BME280;4197;42.130;24.746;2023-02-11T01:51:34;101394.81;;;-5.95;82.50
8320;BME280;4197;42.130;24.746;2023-02-11T01:54:07;101387.28;;;-5.91;82.77
8320;BME280;4197;42.130;24.746;2023-02-11T01:56:55;101382.44;;;-5.94;82.39
8320;BME280;4197;42.130;24.746;2023-02-11T01:59:47;101386.28;;;-5.97;82.88
8320;BME280;4197;42.130;24.746;2023-02-11T02:02:21;101381.56;;;-6.01;83.02
8320;BME280;4197;42.130;24.746;2023-02-11T02:04:53;101393.81;;;-5.94;82.88
8320;BME280;4197;42.130;24.746;2023-02-11T02:07:29;101386.91;;;-5.95;83.00
8320;BME280;4197;42.130;24.746;2023-02-11T02:10:03;101383.44;;;-5.95;82.83
8320;BME280;4197;42.130;24.746;2023-02-11T02:12:32;101377.94;;;-6.00;82.62
8320;BME280;4197;42.130;24.746;2023-02-11T02:15:20;101370.41;;;-6.03;83.20
8320;BME280;4197;42.130;24.746;2023-02-11T02:17:57;101372.25;;;-6.04;83.41
8320;BME280;4197;42.130;24.746;2023-02-11T02:23:33;101371.13;;;-6.23;84.16
8320;BME280;4197;42.130;24.746;2023-02-11T02:26:28;101371.88;;;-6.29;85.01
8320;BME280;4197;42.130;24.746;2023-02-11T02:29:27;101375.38;;;-6.29;84.91
8320;BME280;4197;42.130;24.746;2023-02-11T02:32:19;101374.97;;;-6.25;85.62
8320;BME280;4197;42.130;24.746;2023-02-11T02:34:55;101374.97;;;-6.25;85.56
8320;BME280;4197;42.130;24.746;2023-02-11T02:37:32;101383.13;;;-6.20;85.60
8320;BME280;4197;42.130;24.746;2023-02-11T02:40:06;101382.44;;;-6.29;86.13
8320;BME280;4197;42.130;24.746;2023-02-11T02:42:37;101389.31;;;-6.35;86.29
8320;BME280;4197;42.130;24.746;2023-02-11T02:45:08;101383.63;;;-6.38;87.10
8320;BME280;4197;42.130;24.746;2023-02-11T02:47:39;101384.25;;;-6.36;87.13
8320;BME280;4197;42.130;24.746;2023-02-11T02:50:08;101395.00;;;-6.38;87.33
8320;BME280;4197;42.130;24.746;2023-02-11T02:52:43;101407.78;;;-6.41;86.91
8320;BME280;4197;42.130;24.746;2023-02-11T02:55:21;101405.31;;;-6.43;86.99
8320;BME280;4197;42.130;24.746;2023-02-11T02:58:09;101403.69;;;-6.44;88.13
8320;BME280;4197;42.130;24.746;2023-02-11T03:00:52;101402.69;;;-6.43;88.17
8320;BME280;4197;42.130;24.746;2023-02-11T03:03:28;101392.31;;;-6.44;87.53
8320;BME280;4197;42.130;24.746;2023-02-11T03:06:06;101388.44;;;-6.48;88.23
8320;BME280;4197;42.130;24.746;2023-02-11T03:08:38;101393.91;;;-6.50;87.37
8320;BME280;4197;42.130;24.746;2023-02-11T03:11:09;101384.75;;;-6.54;87.84
8320;BME280;4197;42.130;24.746;2023-02-11T03:13:40;101393.44;;;-6.60;88.56
8320;BME280;4197;42.130;24.746;2023-02-11T03:16:12;101399.09;;;-6.63;88.58
8320;BME280;4197;42.130;24.746;2023-02-11T03:18:46;101407.00;;;-6.63;88.90
8320;BME280;4197;42.130;24.746;2023-02-11T03:21:17;101404.13;;;-6.68;89.87
8320;BME280;4197;42.130;24.746;2023-02-11T03:23:49;101396.59;;;-6.71;89.98
8320;BME280;4197;42.130;24.746;2023-02-11T03:26:23;101392.53;;;-6.74;90.21
8320;BME280;4197;42.130;24.746;2023-02-11T03:28:54;101393.72;;;-6.77;90.77
8320;BME280;4197;42.130;24.746;2023-02-11T03:31:29;101396.75;;;-6.80;91.06
8320;BME280;4197;42.130;24.746;2023-02-11T03:34:05;101396.09;;;-6.82;91.79
8320;BME280;4197;42.130;24.746;2023-02-11T03:36:39;101399.75;;;-6.83;92.05
8320;BME280;4197;42.130;24.746;2023-02-11T03:39:15;101395.50;;;-6.84;92.22
8320;BME280;4197;42.130;24.746;2023-02-11T03:41:46;101398.16;;;-6.84;93.10
8320;BME280;4197;42.130;24.746;2023-02-11T03:44:16;101402.41;;;-6.83;92.75
8320;BME280;4197;42.130;24.746;2023-02-11T03:46:48;101391.03;;;-6.83;93.14
8320;BME280;4197;42.130;24.746;2023-02-11T03:49:20;101397.13;;;-6.83;93.31
8320;BME280;4197;42.130;24.746;2023-02-11T03:51:51;101397.13;;;-6.83;92.80
8320;BME280;4197;42.130;24.746;2023-02-11T03:54:23;101404.09;;;-6.75;92.82
8320;BME280;4197;42.130;24.746;2023-02-11T03:56:54;101401.03;;;-6.79;92.68
8320;BME280;4197;42.130;24.746;2023-02-11T03:59:22;101400.41;;;-6.81;93.21
8320;BME280;4197;42.130;24.746;2023-02-11T04:01:51;101398.56;;;-6.80;93.69
8320;BME280;4197;42.130;24.746;2023-02-11T04:04:21;101394.50;;;-6.83;93.86
8320;BME280;4197;42.130;24.746;2023-02-11T04:06:49;101392.06;;;-6.84;93.75
8320;BME280;4197;42.130;24.746;2023-02-11T04:09:17;101394.88;;;-6.86;93.60
8320;BME280;4197;42.130;24.746;2023-02-11T04:11:45;101398.53;;;-6.87;94.11
8320;BME280;4197;42.130;24.746;2023-02-11T04:14:14;101401.56;;;-6.90;94.80
8320;BME280;4197;42.130;24.746;2023-02-11T04:16:42;101400.53;;;-6.89;94.56
8320;BME280;4197;42.130;24.746;2023-02-11T04:19:10;101405.19;;;-6.91;95.27
8320;BME280;4197;42.130;24.746;2023-02-11T04:21:39;101395.81;;;-6.93;95.11
8320;BME280;4197;42.130;24.746;2023-02-11T04:24:07;101397.00;;;-6.96;95.75
8320;BME280;4197;42.130;24.746;2023-02-11T04:26:35;101392.75;;;-6.97;95.55
8320;BME280;4197;42.130;24.746;2023-02-11T04:29:03;101393.56;;;-6.97;95.29
8320;BME280;4197;42.130;24.746;2023-02-11T04:31:32;101388.72;;;-6.93;95.78
8320;BME280;4197;42.130;24.746;2023-02-11T04:34:00;101392.94;;;-6.99;96.10
8320;BME280;4197;42.130;24.746;2023-02-11T04:36:28;101387.22;;;-7.02;95.92
8320;BME280;4197;42.130;24.746;2023-02-11T04:38:57;101387.06;;;-7.01;96.15
8320;BME280;4197;42.130;24.746;2023-02-11T04:41:26;101386.22;;;-7.01;96.47
8320;BME280;4197;42.130;24.746;2023-02-11T04:43:54;101386.84;;;-6.71;96.29
8320;BME280;4197;42.130;24.746;2023-02-11T04:46:22;101381.78;;;-6.72;95.41
8320;BME280;4197;42.130;24.746;2023-02-11T04:48:51;101374.59;;;-6.85;94.70
8320;BME280;4197;42.130;24.746;2023-02-11T04:51:20;101375.09;;;-6.97;94.76
8320;BME280;4197;42.130;24.746;2023-02-11T04:53:48;101376.88;;;-7.04;94.85
8320;BME280;4197;42.130;24.746;2023-02-11T04:56:17;101381.53;;;-7.06;95.57
8320;BME280;4197;42.130;24.746;2023-02-11T04:58:45;101379.06;;;-7.07;95.41
8320;BME280;4197;42.130;24.746;2023-02-11T05:01:15;101381.19;;;-6.96;94.91
8320;BME280;4197;42.130;24.746;2023-02-11T05:03:43;101378.25;;;-6.86;94.12
8320;BME280;4197;42.130;24.746;2023-02-11T05:06:11;101378.63;;;-6.89;93.92
8320;BME280;4197;42.130;24.746;2023-02-11T05:08:40;101371.78;;;-6.84;93.08
8320;BME280;4197;42.130;24.746;2023-02-11T05:11:14;101369.66;;;-6.95;93.25
8320;BME280;4197;42.130;24.746;2023-02-11T05:13:44;101371.66;;;-6.97;93.75
8320;BME280;4197;42.130;24.746;2023-02-11T05:16:14;101373.53;;;-7.12;93.36
8320;BME280;4197;42.130;24.746;2023-02-11T05:18:44;101371.50;;;-7.17;94.11
8320;BME280;4197;42.130;24.746;2023-02-11T05:21:15;101374.94;;;-7.16;94.92
8320;BME280;4197;42.130;24.746;2023-02-11T05:23:44;101377.31;;;-7.00;94.95
8320;BME280;4197;42.130;24.746;2023-02-11T05:26:13;101373.34;;;-6.89;94.11
8320;BME280;4197;42.130;24.746;2023-02-11T05:28:41;101374.94;;;-6.95;94.16
8320;BME280;4197;42.130;24.746;2023-02-11T05:31:11;101374.94;;;-6.95;94.59
8320;BME280;4197;42.130;24.746;2023-02-11T05:33:41;101380.84;;;-6.65;92.92
8320;BME280;4197;42.130;24.746;2023-02-11T05:36:11;101383.66;;;-6.66;92.01
8320;BME280;4197;42.130;24.746;2023-02-11T05:38:39;101383.78;;;-6.46;90.76
8320;BME280;4197;42.130;24.746;2023-02-11T05:41:11;101380.31;;;-6.54;89.99
8320;BME280;4197;42.130;24.746;2023-02-11T05:43:40;101386.63;;;-6.48;90.27
8320;BME280;4197;42.130;24.746;2023-02-11T05:46:08;101385.50;;;-6.60;90.65
8320;BME280;4197;42.130;24.746;2023-02-11T05:48:38;101399.63;;;-6.75;90.88
8320;BME280;4197;42.130;24.746;2023-02-11T05:51:06;101389.59;;;-6.86;91.35
8320;BME280;4197;42.130;24.746;2023-02-11T05:53:34;101400.88;;;-6.70;92.23
8320;BME280;4197;42.130;24.746;2023-02-11T05:56:02;101392.19;;;-6.64;90.89
8320;BME280;4197;42.130;24.746;2023-02-11T05:58:31;101395.22;;;-6.67;91.67
8320;BME280;4197;42.130;24.746;2023-02-11T06:01:00;101399.16;;;-6.57;90.58
8320;BME280;4197;42.130;24.746;2023-02-11T06:03:28;101398.78;;;-6.54;91.23
8320;BME280;4197;42.130;24.746;2023-02-11T06:05:57;101402.88;;;-6.44;90.58
8320;BME280;4197;42.130;24.746;2023-02-11T06:08:25;101398.47;;;-6.37;89.99
8320;BME280;4197;42.130;24.746;2023-02-11T06:10:54;101395.22;;;-6.39;89.56
8320;BME280;4197;42.130;24.746;2023-02-11T06:13:22;101386.69;;;-6.35;89.66
8320;BME280;4197;42.130;24.746;2023-02-11T06:15:56;101395.22;;;-6.39;89.73
8320;BME280;4197;42.130;24.746;2023-02-11T06:18:24;101392.56;;;-6.39;90.21
8320;BME280;4197;42.130;24.746;2023-02-11T06:20:53;101398.66;;;-6.39;90.41
8320;BME280;4197;42.130;24.746;2023-02-11T06:23:23;101404.72;;;-6.45;90.30
8320;BME280;4197;42.130;24.746;2023-02-11T06:25:54;101393.38;;;-6.39;90.74
8320;BME280;4197;42.130;24.746;2023-02-11T06:28:22;101398.97;;;-6.20;89.83
8320;BME280;4197;42.130;24.746;2023-02-11T06:30:51;101386.84;;;-6.08;88.62
8320;BME280;4197;42.130;24.746;2023-02-11T06:33:19;101391.31;;;-6.02;87.01
8320;BME280;4197;42.130;24.746;2023-02-11T06:35:47;101389.72;;;-6.03;86.95
8320;BME280;4197;42.130;24.746;2023-02-11T06:38:16;101395.81;;;-6.02;87.42
8320;BME280;4197;42.130;24.746;2023-02-11T06:40:48;101400.31;;;-5.90;86.58
8320;BME280;4197;42.130;24.746;2023-02-11T06:43:17;101394.19;;;-5.97;87.38
8320;BME280;4197;42.130;24.746;2023-02-11T06:45:51;101392.97;;;-5.88;86.45
8320;BME280;4197;42.130;24.746;2023-02-11T06:48:20;101397.25;;;-5.87;86.76
8320;BME280;4197;42.130;24.746;2023-02-11T06:50:49;101394.00;;;-5.89;86.60
8320;BME280;4197;42.130;24.746;2023-02-11T06:53:17;101395.63;;;-5.88;87.47
8320;BME280;4197;42.130;24.746;2023-02-11T06:55:46;101386.53;;;-5.78;86.78
8320;BME280;4197;42.130;24.746;2023-02-11T06:58:15;101373.91;;;-5.76;86.97
8320;BME280;4197;42.130;24.746;2023-02-11T07:00:43;101374.59;;;-5.54;85.79
8320;BME280;4197;42.130;24.746;2023-02-11T07:03:12;101383.75;;;-5.44;85.38
8320;BME280;4197;42.130;24.746;2023-02-11T07:05:41;101375.63;;;-5.42;86.06
8320;BME280;4197;42.130;24.746;2023-02-11T07:08:10;101374.44;;;-5.33;85.02
8320;BME280;4197;42.130;24.746;2023-02-11T07:10:39;101379.53;;;-4.91;83.16
8320;BME280;4197;42.130;24.746;2023-02-11T07:13:08;101378.31;;;-4.89;82.36
8320;BME280;4197;42.130;24.746;2023-02-11T07:15:36;101379.34;;;-4.70;80.77
8320;BME280;4197;42.130;24.746;2023-02-11T07:18:07;101379.75;;;-4.60;80.19
8320;BME280;4197;42.130;24.746;2023-02-11T07:20:37;101373.81;;;-4.62;80.39
8320;BME280;4197;42.130;24.746;2023-02-11T07:23:05;101380.53;;;-4.53;80.16
8320;BME280;4197;42.130;24.746;2023-02-11T07:25:34;101382.31;;;-4.33;79.17
8320;BME280;4197;42.130;24.746;2023-02-11T07:28:04;101381.72;;;-4.35;78.25
8320;BME280;4197;42.130;24.746;2023-02-11T07:30:34;101371.59;;;-4.52;78.21
8320;BME280;4197;42.130;24.746;2023-02-11T07:33:02;101365.66;;;-4.47;78.56
8320;BME280;4197;42.130;24.746;2023-02-11T07:35:30;101359.09;;;-4.31;77.80
8320;BME280;4197;42.130;24.746;2023-02-11T07:37:59;101362.56;;;-4.31;77.54
8320;BME280;4197;42.130;24.746;2023-02-11T07:40:27;101364.09;;;-4.03;76.87
8320;BME280;4197;42.130;24.746;2023-02-11T07:42:57;101365.22;;;-3.79;74.67
8320;BME280;4197;42.130;24.746;2023-02-11T07:45:27;101370.03;;;-3.69;74.01
8320;BME280;4197;42.130;24.746;2023-02-11T07:47:57;101366.69;;;-3.51;72.81
8320;BME280;4197;42.130;24.746;2023-02-11T07:50:25;101364.22;;;-3.46;72.03
8320;BME280;4197;42.130;24.746;2023-02-11T07:52:54;101363.28;;;-3.27;71.20
8320;BME280;4197;42.130;24.746;2023-02-11T07:55:22;101361.19;;;-3.18;70.05
8320;BME280;4197;42.130;24.746;2023-02-11T07:57:50;101361.97;;;-3.18;70.09
8320;BME280;4197;42.130;24.746;2023-02-11T08:00:19;101364.09;;;-3.01;69.75
8320;BME280;4197;42.130;24.746;2023-02-11T08:02:47;101362.88;;;-2.99;69.58
8320;BME280;4197;42.130;24.746;2023-02-11T08:05:18;101359.53;;;-2.94;69.96
8320;BME280;4197;42.130;24.746;2023-02-11T08:07:47;101362.34;;;-2.64;68.17
8320;BME280;4197;42.130;24.746;2023-02-11T08:10:21;101358.00;;;-2.58;68.02
8320;BME280;4197;42.130;24.746;2023-02-11T08:12:49;101339.63;;;-2.41;67.67
8320;BME280;4197;42.130;24.746;2023-02-11T08:15:18;101351.97;;;-2.29;67.19
8320;BME280;4197;42.130;24.746;2023-02-11T08:17:49;101345.16;;;-2.25;67.36
8320;BME280;4197;42.130;24.746;2023-02-11T08:20:19;101345.69;;;-2.16;67.66
8320;BME280;4197;42.130;24.746;2023-02-11T08:22:47;101347.31;;;-1.96;67.52
8320;BME280;4197;42.130;24.746;2023-02-11T08:25:16;101333.28;;;-1.73;66.38
8320;BME280;4197;42.130;24.746;2023-02-11T08:27:44;101333.09;;;-1.60;65.68
8320;BME280;4197;42.130;24.746;2023-02-11T08:30:13;101327.47;;;-1.52;65.54
8320;BME280;4197;42.130;24.746;2023-02-11T08:32:42;101328.16;;;-1.45;65.01
8320;BME280;4197;42.130;24.746;2023-02-11T08:35:10;101321.13;;;-1.39;65.91
8320;BME280;4197;42.130;24.746;2023-02-11T08:37:40;101316.31;;;-1.19;65.38
8320;BME280;4197;42.130;24.746;2023-02-11T08:40:09;101321.31;;;-0.99;64.35
8320;BME280;4197;42.130;24.746;2023-02-11T08:42:37;101321.41;;;-0.94;64.20
8320;BME280;4197;42.130;24.746;2023-02-11T08:45:06;101314.34;;;-0.88;65.07
8320;BME280;4197;42.130;24.746;2023-02-11T08:47:36;101318.53;;;-0.80;65.07
8320;BME280;4197;42.130;24.746;2023-02-11T08:50:05;101311.34;;;-0.68;63.72
8320;BME280;4197;42.130;24.746;2023-02-11T08:52:34;101315.72;;;-0.62;64.15
8320;BME280;4197;42.130;24.746;2023-02-11T08:55:05;101300.63;;;-0.45;63.76
8320;BME280;4197;42.130;24.746;2023-02-11T08:57:33;101305.22;;;-0.28;63.13
8320;BME280;4197;42.130;24.746;2023-02-11T09:00:02;101306.97;;;-0.22;62.75
8320;BME280;4197;42.130;24.746;2023-02-11T09:02:30;101308.91;;;-0.17;62.23
8320;BME280;4197;42.130;24.746;2023-02-11T09:04:59;101308.88;;;-0.06;62.54
8320;BME280;4197;42.130;24.746;2023-02-11T09:07:27;101292.88;;;-0.06;62.92
8320;BME280;4197;42.130;24.746;2023-02-11T09:09:55;101303.63;;;0.11;62.50
8320;BME280;4197;42.130;24.746;2023-02-11T09:12:25;101291.34;;;0.27;61.40
8320;BME280;4197;42.130;24.746;2023-02-11T09:14:53;101297.19;;;0.41;61.35
8320;BME280;4197;42.130;24.746;2023-02-11T09:17:21;101296.09;;;0.54;60.15
8320;BME280;4197;42.130;24.746;2023-02-11T09:19:50;101293.25;;;0.77;58.00
8320;BME280;4197;42.130;24.746;2023-02-11T09:22:18;101300.84;;;0.85;56.18
8320;BME280;4197;42.130;24.746;2023-02-11T09:24:47;101286.53;;;0.92;54.77
8320;BME280;4197;42.130;24.746;2023-02-11T09:27:15;101280.06;;;0.87;55.15
8320;BME280;4197;42.130;24.746;2023-02-11T09:29:45;101283.13;;;0.96;54.23
8320;BME280;4197;42.130;24.746;2023-02-11T09:32:13;101272.91;;;1.10;53.47
8320;BME280;4197;42.130;24.746;2023-02-11T09:34:41;101278.22;;;1.27;52.87
8320;BME280;4197;42.130;24.746;2023-02-11T09:37:10;101273.19;;;1.30;52.19
8320;BME280;4197;42.130;24.746;2023-02-11T09:39:38;101269.59;;;1.42;52.19
8320;BME280;4197;42.130;24.746;2023-02-11T09:42:17;101261.44;;;1.53;51.70
8320;BME280;4197;42.130;24.746;2023-02-11T09:44:49;101253.16;;;1.55;52.15
8320;BME280;4197;42.130;24.746;2023-02-11T09:47:24;101255.97;;;1.65;50.98
8320;BME280;4197;42.130;24.746;2023-02-11T09:49:59;101252.13;;;1.78;49.84
8320;BME280;4197;42.130;24.746;2023-02-11T09:52:34;101244.63;;;1.80;50.04
8320;BME280;4197;42.130;24.746;2023-02-11T09:55:08;101237.56;;;1.96;49.96
8320;BME280;4197;42.130;24.746;2023-02-11T09:57:38;101231.22;;;2.02;48.85
8320;BME280;4197;42.130;24.746;2023-02-11T10:00:18;101222.03;;;2.20;47.94
8320;BME280;4197;42.130;24.746;2023-02-11T10:02:57;101209.97;;;2.17;48.66
8320;BME280;4197;42.130;24.746;2023-02-11T10:05:43;101207.09;;;2.29;49.09
8320;BME280;4197;42.130;24.746;2023-02-11T10:08:19;101202.09;;;2.38;48.88
8320;BME280;4197;42.130;24.746;2023-02-11T10:10:58;101194.66;;;2.45;47.92
8320;BME280;4197;42.130;24.746;2023-02-11T10:13:48;101187.19;;;2.47;47.85
8320;BME280;4197;42.130;24.746;2023-02-11T10:16:33;101173.00;;;2.52;47.94
8320;BME280;4197;42.130;24.746;2023-02-11T10:19:14;101176.22;;;2.54;49.10
8320;BME280;4197;42.130;24.746;2023-02-11T10:21:56;101167.75;;;2.67;46.66
8320;BME280;4197;42.130;24.746;2023-02-11T10:24:31;101165.34;;;2.71;46.42
8320;BME280;4197;42.130;24.746;2023-02-11T10:27:03;101158.69;;;2.73;45.86
8320;BME280;4197;42.130;24.746;2023-02-11T10:29:37;101159.53;;;2.84;45.62
8320;BME280;4197;42.130;24.746;2023-02-11T10:32:21;101145.63;;;2.87;45.73
8320;BME280;4197;42.130;24.746;2023-02-11T10:34:55;101154.75;;;2.86;46.32
8320;BME280;4197;42.130;24.746;2023-02-11T10:37:26;101136.00;;;2.96;45.75
8320;BME280;4197;42.130;24.746;2023-02-11T10:39:54;101126.41;;;3.05;46.57
8320;BME280;4197;42.130;24.746;2023-02-11T10:42:24;101131.03;;;3.20;45.75
8320;BME280;4197;42.130;24.746;2023-02-11T10:44:57;101121.09;;;3.21;45.82
8320;BME280;4197;42.130;24.746;2023-02-11T10:47:32;101114.66;;;3.17;46.47
8320;BME280;4197;42.130;24.746;2023-02-11T10:50:18;101108.22;;;3.18;46.48
8320;BME280;4197;42.130;24.746;2023-02-11T10:52:47;101107.44;;;3.32;45.71
8320;BME280;4197;42.130;24.746;2023-02-11T10:55:18;101105.63;;;3.38;44.18
8320;BME280;4197;42.130;24.746;2023-02-11T10:57:54;101100.25;;;3.38;44.46
8320;BME280;4197;42.130;24.746;2023-02-11T11:00:34;101089.25;;;3.45;45.63
8320;BME280;4197;42.130;24.746;2023-02-11T11:03:16;101084.97;;;3.59;44.23
8320;BME280;4197;42.130;24.746;2023-02-11T11:05:48;101080.69;;;3.73;43.81
8320;BME280;4197;42.130;24.746;2023-02-11T11:08:19;101079.34;;;3.76;42.86
8320;BME280;4197;42.130;24.746;2023-02-11T11:11:01;101068.63;;;3.81;41.07
8320;BME280;4197;42.130;24.746;2023-02-11T11:13:32;101057.91;;;3.91;39.46
8320;BME280;4197;42.130;24.746;2023-02-11T11:16:24;101050.34;;;3.93;39.86
8320;BME280;4197;42.130;24.746;2023-02-11T11:19:24;101046.63;;;3.99;38.95
8320;BME280;4197;42.130;24.746;2023-02-11T11:21:53;101046.88;;;3.98;38.90
8320;BME280;4197;42.130;24.746;2023-02-11T11:24:26;101045.53;;;4.00;39.89
8320;BME280;4197;42.130;24.746;2023-02-11T11:26:58;101036.94;;;4.03;39.25
8320;BME280;4197;42.130;24.746;2023-02-11T11:29:32;101027.81;;;3.99;39.98
8320;BME280;4197;42.130;24.746;2023-02-11T11:32:04;101025.38;;;4.13;39.23
8320;BME280;4197;42.130;24.746;2023-02-11T11:34:36;101014.31;;;4.35;36.65
8320;BME280;4197;42.130;24.746;2023-02-11T11:37:12;101019.41;;;4.27;38.26
8320;BME280;4197;42.130;24.746;2023-02-11T11:39:54;101009.47;;;4.32;38.91
8320;BME280;4197;42.130;24.746;2023-02-11T11:42:28;101007.56;;;4.43;38.48
8320;BME280;4197;42.130;24.746;2023-02-11T11:45:05;101002.75;;;4.35;38.09
8320;BME280;4197;42.130;24.746;2023-02-11T11:47:49;100990.16;;;4.35;38.13
8320;BME280;4197;42.130;24.746;2023-02-11T11:50:26;100988.75;;;4.48;36.05
8320;BME280;4197;42.130;24.746;2023-02-11T11:52:59;100976.63;;;4.56;36.12
8320;BME280;4197;42.130;24.746;2023-02-11T11:55:35;100976.63;;;4.56;36.48
8320;BME280;4197;42.130;24.746;2023-02-11T11:58:12;100971.75;;;4.63;36.13
8320;BME280;4197;42.130;24.746;2023-02-11T12:00:51;100972.84;;;4.57;36.14
8320;BME280;4197;42.130;24.746;2023-02-11T12:04:03;100962.63;;;4.64;35.60
8320;BME280;4197;42.130;24.746;2023-02-11T12:06:54;100960.16;;;4.73;34.90
8320;BME280;4197;42.130;24.746;2023-02-11T12:09:34;100957.13;;;4.84;34.76
8320;BME280;4197;42.130;24.746;2023-02-11T12:12:22;100954.69;;;4.88;34.26
8320;BME280;4197;42.130;24.746;2023-02-11T12:15:01;100953.81;;;4.98;33.96
8320;BME280;4197;42.130;24.746;2023-02-11T12:17:56;100949.69;;;5.10;33.80
8320;BME280;4197;42.130;24.746;2023-02-11T12:20:36;100939.84;;;4.96;33.36
8320;BME280;4197;42.130;24.746;2023-02-11T12:23:27;100937.34;;;5.04;33.12
8320;BME280;4197;42.130;24.746;2023-02-11T12:26:07;100928.22;;;5.05;33.17
8320;BME280;4197;42.130;24.746;2023-02-11T12:28:45;100927.69;;;5.03;33.61
8320;BME280;4197;42.130;24.746;2023-02-11T12:31:29;100920.63;;;5.12;33.48
8320;BME280;4197;42.130;24.746;2023-02-11T12:34:16;100922.78;;;5.16;33.14
8320;BME280;4197;42.130;24.746;2023-02-11T12:36:59;100925.22;;;5.07;33.25
8320;BME280;4197;42.130;24.746;2023-02-11T12:39:42;100920.72;;;5.02;33.82
8320;BME280;4197;42.130;24.746;2023-02-11T12:42:29;100924.97;;;5.08;32.52
8320;BME280;4197;42.130;24.746;2023-02-11T12:45:24;100914.13;;;5.19;32.70
8320;BME280;4197;42.130;24.746;2023-02-11T12:48:08;100911.66;;;5.27;32.39
8320;BME280;4197;42.130;24.746;2023-02-11T12:50:46;100912.59;;;5.42;32.40
8320;BME280;4197;42.130;24.746;2023-02-11T12:53:29;100912.06;;;5.40;32.24
8320;BME280;4197;42.130;24.746;2023-02-11T12:56:09;100914.28;;;5.32;32.21
8320;BME280;4197;42.130;24.746;2023-02-11T12:58:41;100908.94;;;5.27;32.12
8320;BME280;4197;42.130;24.746;2023-02-11T13:01:18;100905.97;;;5.29;31.86
8320;BME280;4197;42.130;24.746;2023-02-11T13:03:53;100902.47;;;5.28;32.43
8320;BME280;4197;42.130;24.746;2023-02-11T13:06:27;100893.34;;;5.29;32.09
8320;BME280;4197;42.130;24.746;2023-02-11T13:09:00;100896.78;;;5.35;31.85
8320;BME280;4197;42.130;24.746;2023-02-11T13:11:36;100895.09;;;5.44;31.59
8320;BME280;4197;42.130;24.746;2023-02-11T13:14:11;100892.31;;;5.54;31.66
8320;BME280;4197;42.130;24.746;2023-02-11T13:16:45;100885.59;;;5.52;31.61
8320;BME280;4197;42.130;24.746;2023-02-11T13:19:19;100885.06;;;5.50;31.72
8320;BME280;4197;42.130;24.746;2023-02-11T13:21:59;100877.84;;;5.45;31.96
8320;BME280;4197;42.130;24.746;2023-02-11T13:24:37;100879.50;;;5.41;30.82
8320;BME280;4197;42.130;24.746;2023-02-11T13:27:21;100879.78;;;5.40;30.76
8320;BME280;4197;42.130;24.746;2023-02-11T13:30:17;100862.75;;;5.49;30.92
8320;BME280;4197;42.130;24.746;2023-02-11T13:33:16;100866.22;;;5.50;30.47
8320;BME280;4197;42.130;24.746;2023-02-11T13:35:48;100864.00;;;5.57;30.55
8320;BME280;4197;42.130;24.746;2023-02-11T13:38:37;100862.28;;;5.66;30.60